• Join FlightAware (Why Join?)
  • Login
  • US Flag 
06:45AM EDT


 

Airport Tracker/Info


-or-


 

Live Flight TrackerFlight Track Log ✈ N626BG ✈ 15-Sep-2013 ✈ KESN - KJQF

Flight Track Log - Related Links

Times and Time Zones

All times are in EDT time to prevent confusion due to time zone crossing. See the N626BG flight status page for this flight to view local times or setup timezone preferences in your user account.

Time Position Orientation Groundspeed Altitude Reporting Facility
EDT Latitude Longitude Course Direction KTS MPH feet Rate Location/Type
01:55PM 38.8167 -76.1000 195° South 109 125 1,400  Level Potomac TRACON
01:56PM 38.8350 -76.1219 317° Northwest 112 129 2,300 660 Climbing Washington Center
01:57PM 38.8078 -76.1406 208° Southwest 123 142 3,000 660 Climbing Washington Center
01:58PM 38.7786 -76.1589 206° Southwest 123 142 3,700 720 Climbing Washington Center
01:59PM 38.7408 -76.1744 198° South 128 147 4,500 780 Climbing Washington Center
02:00PM 38.7117 -76.1903 203° Southwest 128 147 5,300 720 Climbing Washington Center
02:01PM 38.6331 -76.3179 195° South  Level Estimated
02:01PM 38.6783 -76.2086 203° Southwest 128 147 6,000  Level Washington Center
02:02PM 38.6428 -76.2269 202° Southwest 128 147 6,800 720 Climbing Washington Center
02:03PM 38.6133 -76.2400 199° South 128 147 7,500 660 Climbing Washington Center
02:04PM 38.5800 -76.2583 203° Southwest 128 147 8,200 660 Climbing Washington Center
02:05PM 38.5467 -76.2739 200° South 128 147 8,900 600 Climbing Washington Center
02:06PM 38.5131 -76.2894 200° South 128 147 9,500 600 Climbing Washington Center
02:07PM 38.4797 -76.3078 203° Southwest 128 147 10,200 600 Climbing Washington Center
02:08PM 38.4442 -76.3261 202° Southwest 133 153 10,800 600 Climbing Washington Center
02:09PM 38.4086 -76.3414 199° South 133 153 11,400 600 Climbing Washington Center
02:10PM 38.3731 -76.3597 202° Southwest 133 153 12,000 240 Climbing Washington Center
02:11PM 38.3333 -76.3806 202° Southwest 139 160 12,000  Level Washington Center
02:12PM 38.2872 -76.3986 197° South 157 181 12,000  Level Washington Center
02:13PM 38.2578 -76.4406 228° Southwest 157 181 12,000  Level Washington Center
02:14PM 38.2261 -76.4825 226° Southwest 162 186 12,000  Level Washington Center
02:15PM 38.1944 -76.5269 228° Southwest 167 192 12,000  Level Washington Center
02:16PM 38.1672 -76.5689 230° Southwest 167 192 12,000  Level Washington Center
02:17PM 38.1356 -76.6133 228° Southwest 167 192 12,000  Level Washington Center
02:18PM 38.1058 -76.6525 226° Southwest 167 192 12,000  Level Washington Center
02:19PM 38.0764 -76.6969 230° Southwest 167 192 12,000  Level Washington Center
02:20PM 38.0447 -76.7386 226° Southwest 167 192 12,000  Level Washington Center
02:21PM 38.0131 -76.7803 226° Southwest 167 192 12,000  Level Washington Center
02:22PM 37.9833 -76.8222 228° Southwest 162 186 12,000  Level Washington Center
02:23PM 37.9517 -76.8636 226° Southwest 162 186 12,000  Level Washington Center
02:24PM 37.9158 -76.9000 219° Southwest 167 192 12,000  Level Washington Center
02:25PM 37.8800 -76.9361 219° Southwest 167 192 12,000  Level Washington Center
02:26PM 37.8461 -76.9725 220° Southwest 167 192 12,000  Level Washington Center
02:27PM 37.8103 -77.0058 216° Southwest 162 186 12,000  Level Washington Center
02:28PM 37.7786 -77.0447 224° Southwest 162 186 12,000  Level Washington Center
02:29PM 37.7428 -77.0731 212° Southwest 162 186 12,000  Level Washington Center
02:30PM 37.7089 -77.1089 220° Southwest 162 186 12,000  Level Washington Center
02:31PM 37.6731 -77.1450 219° Southwest 162 186 12,000  Level Washington Center
02:32PM 37.6372 -77.1836 220° Southwest 162 186 12,000  Level Washington Center
02:33PM 37.6033 -77.2197 220° Southwest 162 186 12,000  Level Washington Center
02:34PM 37.5672 -77.2556 218° Southwest 162 186 12,000  Level Washington Center
02:35PM 37.5314 -77.2914 218° Southwest 162 186 12,000  Level Washington Center
02:36PM 37.4975 -77.3272 220° Southwest 162 186 12,000  Level Washington Center
02:37PM 37.4758 -77.3767 241° Southwest 157 181 12,000  Level Washington Center
02:39PM 37.4286 -77.4747 239° Southwest 162 186 12,000 -60 Level Washington Center
02:40PM 37.4047 -77.5214 237° Southwest 167 192 11,900 -60 Descending Washington Center
02:41PM 37.3831 -77.5703 241° Southwest 167 192 11,900  Level Washington Center
02:42PM 37.3614 -77.6169 240° Southwest 162 186 11,900  Level Washington Center
02:43PM 37.3378 -77.6658 239° Southwest 162 186 11,900  Level Washington Center
02:44PM 37.3161 -77.7097 238° Southwest 162 186 11,900  Level Washington Center
02:45PM 37.2922 -77.7586 238° Southwest 167 192 11,900  Level Washington Center
02:46PM 37.2706 -77.8050 240° Southwest 167 192 11,900  Level Washington Center
02:47PM 37.2467 -77.8539 238° Southwest 162 186 11,900  Level Washington Center
02:48PM 37.2250 -77.9003 240° Southwest 162 186 11,900  Level Washington Center
02:49PM 37.2011 -77.9464 237° Southwest 162 186 11,900  Level Washington Center
02:50PM 37.1794 -77.9928 240° Southwest 162 186 11,900  Level Washington Center
02:51PM 37.1533 -78.0439 237° Southwest 167 192 11,900  Level Washington Center
02:52PM 37.1314 -78.0903 239° Southwest 167 192 11,900  Level Washington Center
02:53PM 37.1097 -78.1389 241° Southwest 167 192 11,900  Level Washington Center
02:54PM 37.0878 -78.1878 241° Southwest 167 192 11,900  Level Washington Center
02:55PM 37.0658 -78.2311 238° Southwest 167 192 11,900  Level Washington Center
02:56PM 37.0419 -78.2772 237° Southwest 167 192 11,900  Level Washington Center
02:57PM 37.0200 -78.3258 241° Southwest 167 192 11,900  Level Washington Center
02:58PM 36.9958 -78.3719 237° Southwest 167 192 11,900  Level Washington Center
02:59PM 36.9697 -78.4256 239° Southwest 167 192 11,900  Level Washington Center
03:00PM 36.9456 -78.4714 237° Southwest 162 186 12,000  Climbing Washington Center
03:01PM 36.9214 -78.5197 238° Southwest 167 192 12,000  Level Washington Center
03:02PM 36.8994 -78.5683 241° Southwest 162 186 12,000  Level Washington Center
03:03PM 36.8775 -78.6092 236° Southwest 162 186 12,000  Level Washington Center
03:04PM 36.8533 -78.6575 238° Southwest 162 186 12,000  Level Washington Center
03:05PM 36.8292 -78.7058 238° Southwest 162 186 12,000  Level Washington Center
03:06PM 36.8069 -78.7542 240° Southwest 162 186 12,000  Level Washington Center
03:07PM 36.7806 -78.8050 237° Southwest 162 186 12,000  Level Washington Center
03:08PM 36.7564 -78.8506 236° Southwest 162 186 12,000 -60 Level Washington Center
03:09PM 36.7342 -78.8989 240° Southwest 162 186 11,900  Descending Washington Center
03:10PM 36.7100 -78.9444 237° Southwest 162 186 12,000  Climbing Washington Center
03:11PM 36.6878 -78.9903 239° Southwest 162 186 12,000  Level Washington Center
03:12PM 36.6617 -79.0356 234° Southwest 162 186 12,000  Level Washington Center
03:13PM 36.6331 -79.0836 233° Southwest 170 196 12,000 -60 Level Washington Center
03:14PM 36.6047 -79.1264 230° Southwest 170 196 11,900 -60 Descending Washington Center
03:15PM 36.5742 -79.1714 230° Southwest 170 196 11,900 -240 Level Washington Center
03:16PM 36.5433 -79.2192 231° Southwest 170 196 11,500 -480 Descending Washington Center
03:17PM 36.5106 -79.2694 231° Southwest 180 207 11,000 -540 Descending Washington Center
03:18PM 36.4800 -79.3169 231° Southwest 180 207 10,500 -300 Descending Washington Center
03:20PM 36.4345 -79.3682 232° Southwest  Level FlightAware Approximate
03:27PM 36.2436 -79.6518 231° Southwest  Level FlightAware Approximate
03:28PM 36.2166 -79.6925 230° Southwest  Level FlightAware Approximate
03:29PM 36.1895 -79.7332 230° Southwest  Level FlightAware Approximate
03:30PM 36.1624 -79.7738 230° Southwest  Level FlightAware Approximate
03:31PM 36.1353 -79.8144 230° Southwest  Level FlightAware Approximate
03:32PM 36.1081 -79.8550 230° Southwest  Level FlightAware Approximate
03:33PM 36.0810 -79.8956 230° Southwest  Level FlightAware Approximate
03:34PM 36.0538 -79.9361 230° Southwest  Level FlightAware Approximate
03:35PM 36.0251 -79.9746 218° Southwest  Level FlightAware Approximate
03:43PM 35.7014 -80.3103 218° Southwest 152 175 4,000  Level Atlanta Center
03:44PM 35.6708 -80.3372 216° Southwest 152 175 4,000  Level Atlanta Center
03:45PM 35.6303 -80.3750 217° Southwest 150 173 4,000  Level Atlanta Center
03:46PM 35.5978 -80.4069 219° Southwest 154 177 4,000  Level Atlanta Center
03:47PM 35.5717 -80.4389 225° Southwest 157 181 4,000  Level Atlanta Center
03:48PM 35.5689 -80.4925 266° West 157 181 4,000  Level Atlanta Center
03:49PM 35.5642 -80.5464 264° West 158 182 4,000  Level Atlanta Center
03:50PM 35.5164 -80.5458 179° South 154 177 4,000  Level Atlanta Center
03:51PM 35.4789 -80.5475 182° South 147 169 4,000 -300 Level Atlanta Center
03:52PM 35.4333 -80.5594 192° South 148 170 3,400 -480 Descending Atlanta Center
03:53PM 35.3917 -80.5714 193° South 149 171 3,000 -240 Descending Atlanta Center
03:54PM 35.3653 -80.5931 214° Southwest 129 148 3,000  Level Atlanta Center
03:55PM 35.3453 -80.6244 232° Southwest 123 142 3,000 -240 Level Atlanta Center
03:56PM 35.3425 -80.6728 266° West 128 147 2,500 -600 Descending Atlanta Center
03:57PM 35.3372 -80.7111 260° West 129 148 1,900 -600 Descending Atlanta Center
03:58PM 35.3561 -80.7181 343° North 94 108 1,400 -420 Descending Atlanta Center
03:59PM 35.3728 -80.7175 North 81 93 1,100 -300 Descending Atlanta Center